Kingvale, California
Current Conditions -  °F | °C
As of 7:03 AM on Friday 31 Oct 2014 (Local Time) from KBLU Reporting Station
Broken Clouds Broken Clouds  
Wind Chill: 42°   Ceiling: 8500
Heat Index: 46°   Visibility: 10mi
Dew Point: 40°   Wind: 8mph
Humidity: 79%   Direction: 140°SE
Pressure: 29.94"   Gusts: 16mph
Location:  39.4261°N, 120.475°W
Report Text: KBLU 311403Z AUTO 14007G14KT 10SM SCT011 BKN085 08/04 A2994 RMK AO2 T00780044
Loading
Personal Weather Stations






























Interactive Weather Map
Tropical Storm Tracking
New forecast layout! Learn more

10-Day Weather Forecast

Advertisements
Track Severe Weather on mobile